sensor_id;sensor_type;location;lat;lon;timestamp;P1;durP1;ratioP1;P2;durP2;ratioP2
49978;SDS011;35869;50.990;6.962;2023-02-01T00:03:47;13.35;;;7.70;;
49978;SDS011;35869;50.990;6.962;2023-02-01T00:08:47;22.25;;;7.68;;
49978;SDS011;35869;50.990;6.962;2023-02-01T00:13:47;11.93;;;7.82;;
49978;SDS011;35869;50.990;6.962;2023-02-01T00:18:49;11.93;;;7.82;;
49978;SDS011;35869;50.990;6.962;2023-02-01T00:23:51;16.10;;;7.35;;
49978;SDS011;35869;50.990;6.962;2023-02-01T00:28:51;15.77;;;9.38;;
49978;SDS011;35869;50.990;6.962;2023-02-01T00:33:51;17.10;;;7.65;;
49978;SDS011;35869;50.990;6.962;2023-02-01T00:38:51;18.35;;;7.60;;
49978;SDS011;35869;50.990;6.962;2023-02-01T00:48:53;12.05;;;6.50;;
49978;SDS011;35869;50.990;6.962;2023-02-01T00:53:54;10.00;;;6.00;;
49978;SDS011;35869;50.990;6.962;2023-02-01T00:58:54;11.57;;;6.03;;
49978;SDS011;35869;50.990;6.962;2023-02-01T01:03:56;14.70;;;6.00;;
49978;SDS011;35869;50.990;6.962;2023-02-01T01:08:58;7.93;;;4.22;;
49978;SDS011;35869;50.990;6.962;2023-02-01T01:14:00;11.52;;;4.10;;
49978;SDS011;35869;50.990;6.962;2023-02-01T01:19:00;10.10;;;4.50;;
49978;SDS011;35869;50.990;6.962;2023-02-01T01:24:01;7.63;;;4.35;;
49978;SDS011;35869;50.990;6.962;2023-02-01T01:29:02;9.40;;;4.15;;
49978;SDS011;35869;50.990;6.962;2023-02-01T01:34:02;12.15;;;5.15;;
49978;SDS011;35869;50.990;6.962;2023-02-01T01:39:02;13.57;;;4.47;;
49978;SDS011;35869;50.990;6.962;2023-02-01T01:44:04;10.85;;;4.32;;
49978;SDS011;35869;50.990;6.962;2023-02-01T01:49:16;12.25;;;3.50;;
49978;SDS011;35869;50.990;6.962;2023-02-01T01:54:23;11.23;;;4.15;;
49978;SDS011;35869;50.990;6.962;2023-02-01T01:59:28;18.42;;;4.82;;
49978;SDS011;35869;50.990;6.962;2023-02-01T02:04:32;9.88;;;4.18;;
49978;SDS011;35869;50.990;6.962;2023-02-01T02:09:33;11.75;;;3.95;;
49978;SDS011;35869;50.990;6.962;2023-02-01T02:14:34;19.08;;;4.68;;
49978;SDS011;35869;50.990;6.962;2023-02-01T02:35:38;8.15;;;4.32;;
49978;SDS011;35869;50.990;6.962;2023-02-01T02:46:37;10.05;;;4.35;;
49978;SDS011;35869;50.990;6.962;2023-02-01T02:51:42;12.73;;;4.25;;
49978;SDS011;35869;50.990;6.962;2023-02-01T02:56:45;7.95;;;4.22;;
49978;SDS011;35869;50.990;6.962;2023-02-01T03:01:48;15.55;;;5.65;;
49978;SDS011;35869;50.990;6.962;2023-02-01T03:06:49;11.52;;;6.05;;
49978;SDS011;35869;50.990;6.962;2023-02-01T03:11:49;11.67;;;4.67;;
49978;SDS011;35869;50.990;6.962;2023-02-01T03:16:58;11.35;;;4.85;;
49978;SDS011;35869;50.990;6.962;2023-02-01T03:22:08;11.85;;;4.95;;
49978;SDS011;35869;50.990;6.962;2023-02-01T03:27:24;14.98;;;5.50;;
49978;SDS011;35869;50.990;6.962;2023-02-01T03:32:30;15.95;;;6.03;;
49978;SDS011;35869;50.990;6.962;2023-02-01T03:37:30;13.53;;;6.23;;
49978;SDS011;35869;50.990;6.962;2023-02-01T03:42:33;17.33;;;5.78;;
49978;SDS011;35869;50.990;6.962;2023-02-01T03:47:37;17.48;;;5.93;;
49978;SDS011;35869;50.990;6.962;2023-02-01T03:52:42;12.80;;;5.13;;
49978;SDS011;35869;50.990;6.962;2023-02-01T03:57:50;12.98;;;6.00;;
49978;SDS011;35869;50.990;6.962;2023-02-01T04:02:55;13.48;;;5.05;;
49978;SDS011;35869;50.990;6.962;2023-02-01T04:07:55;9.63;;;5.10;;
49978;SDS011;35869;50.990;6.962;2023-02-01T04:12:56;15.27;;;5.20;;
49978;SDS011;35869;50.990;6.962;2023-02-01T04:17:56;10.25;;;6.05;;
49978;SDS011;35869;50.990;6.962;2023-02-01T04:22:56;10.23;;;4.55;;
49978;SDS011;35869;50.990;6.962;2023-02-01T04:27:57;9.10;;;4.28;;
49978;SDS011;35869;50.990;6.962;2023-02-01T04:32:57;10.65;;;4.35;;
49978;SDS011;35869;50.990;6.962;2023-02-01T04:37:57;10.18;;;4.10;;
49978;SDS011;35869;50.990;6.962;2023-02-01T04:42:58;16.35;;;5.70;;
49978;SDS011;35869;50.990;6.962;2023-02-01T04:47:58;13.68;;;4.68;;
49978;SDS011;35869;50.990;6.962;2023-02-01T04:52:58;11.27;;;4.70;;
49978;SDS011;35869;50.990;6.962;2023-02-01T04:57:58;11.38;;;5.00;;
49978;SDS011;35869;50.990;6.962;2023-02-01T05:02:58;15.63;;;4.75;;
49978;SDS011;35869;50.990;6.962;2023-02-01T05:07:59;11.60;;;4.00;;
49978;SDS011;35869;50.990;6.962;2023-02-01T05:12:59;14.65;;;4.45;;
49978;SDS011;35869;50.990;6.962;2023-02-01T05:17:59;11.13;;;3.28;;
49978;SDS011;35869;50.990;6.962;2023-02-01T05:22:59;20.15;;;5.10;;
49978;SDS011;35869;50.990;6.962;2023-02-01T05:28:00;18.05;;;5.47;;
49978;SDS011;35869;50.990;6.962;2023-02-01T05:33:00;12.25;;;4.40;;
49978;SDS011;35869;50.990;6.962;2023-02-01T05:38:00;10.60;;;3.67;;
49978;SDS011;35869;50.990;6.962;2023-02-01T05:43:00;14.43;;;4.60;;
49978;SDS011;35869;50.990;6.962;2023-02-01T05:48:01;9.60;;;4.65;;
49978;SDS011;35869;50.990;6.962;2023-02-01T05:53:01;11.85;;;4.05;;
49978;SDS011;35869;50.990;6.962;2023-02-01T05:58:01;19.90;;;4.28;;
49978;SDS011;35869;50.990;6.962;2023-02-01T06:03:01;14.85;;;5.55;;
49978;SDS011;35869;50.990;6.962;2023-02-01T06:08:02;11.17;;;4.53;;
49978;SDS011;35869;50.990;6.962;2023-02-01T06:13:02;17.43;;;4.80;;
49978;SDS011;35869;50.990;6.962;2023-02-01T06:18:03;20.53;;;4.03;;
49978;SDS011;35869;50.990;6.962;2023-02-01T06:23:04;14.65;;;4.07;;
49978;SDS011;35869;50.990;6.962;2023-02-01T06:28:04;11.25;;;4.28;;
49978;SDS011;35869;50.990;6.962;2023-02-01T06:33:04;10.00;;;4.53;;
49978;SDS011;35869;50.990;6.962;2023-02-01T06:38:04;7.57;;;3.67;;
49978;SDS011;35869;50.990;6.962;2023-02-01T06:43:05;15.88;;;3.85;;
49978;SDS011;35869;50.990;6.962;2023-02-01T06:48:05;10.00;;;4.00;;
49978;SDS011;35869;50.990;6.962;2023-02-01T06:53:05;7.40;;;4.03;;
49978;SDS011;35869;50.990;6.962;2023-02-01T06:58:05;16.80;;;4.32;;
49978;SDS011;35869;50.990;6.962;2023-02-01T07:03:05;13.48;;;3.67;;
49978;SDS011;35869;50.990;6.962;2023-02-01T07:08:06;13.73;;;4.15;;
49978;SDS011;35869;50.990;6.962;2023-02-01T07:13:06;8.32;;;4.25;;
49978;SDS011;35869;50.990;6.962;2023-02-01T07:18:06;13.30;;;3.90;;
49978;SDS011;35869;50.990;6.962;2023-02-01T07:23:08;9.02;;;4.38;;
49978;SDS011;35869;50.990;6.962;2023-02-01T07:28:09;9.63;;;3.85;;
49978;SDS011;35869;50.990;6.962;2023-02-01T07:33:09;15.88;;;4.00;;
49978;SDS011;35869;50.990;6.962;2023-02-01T07:38:10;12.88;;;4.47;;
49978;SDS011;35869;50.990;6.962;2023-02-01T07:43:10;10.02;;;3.53;;
49978;SDS011;35869;50.990;6.962;2023-02-01T07:48:10;15.13;;;4.63;;
49978;SDS011;35869;50.990;6.962;2023-02-01T07:53:10;12.55;;;4.28;;
49978;SDS011;35869;50.990;6.962;2023-02-01T07:58:10;11.40;;;3.67;;
49978;SDS011;35869;50.990;6.962;2023-02-01T08:03:11;11.68;;;3.90;;
49978;SDS011;35869;50.990;6.962;2023-02-01T08:08:11;12.00;;;4.18;;
49978;SDS011;35869;50.990;6.962;2023-02-01T08:13:11;16.02;;;4.32;;
49978;SDS011;35869;50.990;6.962;2023-02-01T08:18:11;12.40;;;4.53;;
49978;SDS011;35869;50.990;6.962;2023-02-01T08:23:11;9.57;;;3.80;;
49978;SDS011;35869;50.990;6.962;2023-02-01T08:28:12;15.37;;;3.63;;
49978;SDS011;35869;50.990;6.962;2023-02-01T08:33:12;18.63;;;5.10;;
49978;SDS011;35869;50.990;6.962;2023-02-01T08:38:12;16.30;;;4.60;;
49978;SDS011;35869;50.990;6.962;2023-02-01T08:43:12;18.95;;;5.07;;
49978;SDS011;35869;50.990;6.962;2023-02-01T08:48:13;14.13;;;3.92;;
49978;SDS011;35869;50.990;6.962;2023-02-01T08:53:13;10.52;;;3.25;;
49978;SDS011;35869;50.990;6.962;2023-02-01T08:58:13;10.13;;;3.78;;
49978;SDS011;35869;50.990;6.962;2023-02-01T09:03:14;14.13;;;3.80;;
49978;SDS011;35869;50.990;6.962;2023-02-01T09:08:14;14.20;;;4.68;;
49978;SDS011;35869;50.990;6.962;2023-02-01T09:13:14;11.85;;;4.10;;
49978;SDS011;35869;50.990;6.962;2023-02-01T09:18:15;13.63;;;3.33;;
49978;SDS011;35869;50.990;6.962;2023-02-01T09:23:15;12.15;;;3.58;;
49978;SDS011;35869;50.990;6.962;2023-02-01T09:28:15;12.35;;;4.43;;
49978;SDS011;35869;50.990;6.962;2023-02-01T09:33:16;18.65;;;4.93;;
49978;SDS011;35869;50.990;6.962;2023-02-01T09:38:16;11.43;;;3.47;;
49978;SDS011;35869;50.990;6.962;2023-02-01T09:48:31;7.18;;;4.10;;
49978;SDS011;35869;50.990;6.962;2023-02-01T09:53:38;11.25;;;3.88;;
49978;SDS011;35869;50.990;6.962;2023-02-01T09:58:44;10.32;;;3.72;;
49978;SDS011;35869;50.990;6.962;2023-02-01T10:03:52;13.90;;;3.47;;
49978;SDS011;35869;50.990;6.962;2023-02-01T10:09:33;9.50;;;3.88;;
49978;SDS011;35869;50.990;6.962;2023-02-01T10:19:53;14.07;;;4.47;;
49978;SDS011;35869;50.990;6.962;2023-02-01T10:25:23;13.13;;;3.75;;
49978;SDS011;35869;50.990;6.962;2023-02-01T10:30:28;10.90;;;3.50;;
49978;SDS011;35869;50.990;6.962;2023-02-01T10:35:31;10.77;;;4.10;;
49978;SDS011;35869;50.990;6.962;2023-02-01T10:40:36;13.50;;;4.57;;
49978;SDS011;35869;50.990;6.962;2023-02-01T10:45:37;22.83;;;4.72;;
49978;SDS011;35869;50.990;6.962;2023-02-01T10:55:49;9.20;;;2.90;;
49978;SDS011;35869;50.990;6.962;2023-02-01T11:00:53;11.57;;;4.13;;
49978;SDS011;35869;50.990;6.962;2023-02-01T11:05:57;14.82;;;4.30;;
49978;SDS011;35869;50.990;6.962;2023-02-01T11:10:58;16.88;;;4.10;;
49978;SDS011;35869;50.990;6.962;2023-02-01T11:16:00;11.38;;;4.40;;
49978;SDS011;35869;50.990;6.962;2023-02-01T11:21:02;18.67;;;6.03;;
49978;SDS011;35869;50.990;6.962;2023-02-01T11:26:47;16.35;;;4.25;;
49978;SDS011;35869;50.990;6.962;2023-02-01T11:31:29;10.50;;;3.60;;
49978;SDS011;35869;50.990;6.962;2023-02-01T11:36:30;10.80;;;4.13;;
49978;SDS011;35869;50.990;6.962;2023-02-01T11:41:33;13.02;;;4.30;;
49978;SDS011;35869;50.990;6.962;2023-02-01T11:46:36;9.93;;;4.03;;
49978;SDS011;35869;50.990;6.962;2023-02-01T11:51:39;14.57;;;3.65;;
49978;SDS011;35869;50.990;6.962;2023-02-01T11:57:00;8.88;;;3.95;;
49978;SDS011;35869;50.990;6.962;2023-02-01T12:24:00;10.00;;;2.88;;
49978;SDS011;35869;50.990;6.962;2023-02-01T12:46:07;14.00;;;3.75;;
49978;SDS011;35869;50.990;6.962;2023-02-01T12:51:29;11.18;;;3.65;;
49978;SDS011;35869;50.990;6.962;2023-02-01T13:02:06;13.52;;;3.75;;
49978;SDS011;35869;50.990;6.962;2023-02-01T13:07:14;15.05;;;3.63;;
49978;SDS011;35869;50.990;6.962;2023-02-01T13:13:22;9.45;;;3.60;;
49978;SDS011;35869;50.990;6.962;2023-02-01T13:18:00;9.13;;;3.70;;
49978;SDS011;35869;50.990;6.962;2023-02-01T13:23:05;7.88;;;2.97;;
49978;SDS011;35869;50.990;6.962;2023-02-01T13:28:11;7.80;;;2.53;;
49978;SDS011;35869;50.990;6.962;2023-02-01T13:33:33;11.98;;;2.90;;
49978;SDS011;35869;50.990;6.962;2023-02-01T13:44:29;10.00;;;4.22;;
49978;SDS011;35869;50.990;6.962;2023-02-01T13:49:39;9.88;;;3.13;;
49978;SDS011;35869;50.990;6.962;2023-02-01T13:54:40;8.52;;;4.00;;
49978;SDS011;35869;50.990;6.962;2023-02-01T14:04:48;10.02;;;2.88;;
49978;SDS011;35869;50.990;6.962;2023-02-01T14:09:50;8.88;;;3.20;;
49978;SDS011;35869;50.990;6.962;2023-02-01T14:14:50;8.90;;;2.72;;
49978;SDS011;35869;50.990;6.962;2023-02-01T14:19:50;4.82;;;3.05;;
49978;SDS011;35869;50.990;6.962;2023-02-01T14:25:32;9.75;;;2.55;;
49978;SDS011;35869;50.990;6.962;2023-02-01T14:30:33;11.25;;;3.60;;
49978;SDS011;35869;50.990;6.962;2023-02-01T14:35:34;10.43;;;3.33;;
49978;SDS011;35869;50.990;6.962;2023-02-01T14:40:34;10.13;;;2.60;;
49978;SDS011;35869;50.990;6.962;2023-02-01T14:50:36;14.35;;;3.58;;
49978;SDS011;35869;50.990;6.962;2023-02-01T15:00:56;9.65;;;3.05;;
49978;SDS011;35869;50.990;6.962;2023-02-01T15:05:59;12.95;;;3.17;;
49978;SDS011;35869;50.990;6.962;2023-02-01T15:11:00;6.40;;;3.10;;
49978;SDS011;35869;50.990;6.962;2023-02-01T15:16:13;6.45;;;2.65;;
49978;SDS011;35869;50.990;6.962;2023-02-01T15:21:19;7.72;;;3.38;;
49978;SDS011;35869;50.990;6.962;2023-02-01T15:26:28;13.30;;;3.10;;
49978;SDS011;35869;50.990;6.962;2023-02-01T15:31:36;9.52;;;3.30;;
49978;SDS011;35869;50.990;6.962;2023-02-01T15:36:42;13.45;;;4.18;;
49978;SDS011;35869;50.990;6.962;2023-02-01T15:41:45;18.70;;;3.42;;
49978;SDS011;35869;50.990;6.962;2023-02-01T15:46:49;5.57;;;3.17;;
49978;SDS011;35869;50.990;6.962;2023-02-01T15:51:50;8.88;;;2.92;;
49978;SDS011;35869;50.990;6.962;2023-02-01T15:56:52;13.23;;;3.45;;
49978;SDS011;35869;50.990;6.962;2023-02-01T16:01:54;11.90;;;3.78;;
49978;SDS011;35869;50.990;6.962;2023-02-01T16:06:55;13.15;;;3.92;;
49978;SDS011;35869;50.990;6.962;2023-02-01T16:11:58;7.13;;;2.15;;
49978;SDS011;35869;50.990;6.962;2023-02-01T16:17:00;8.73;;;3.30;;
49978;SDS011;35869;50.990;6.962;2023-02-01T16:22:01;12.32;;;3.10;;
49978;SDS011;35869;50.990;6.962;2023-02-01T16:27:01;11.98;;;3.55;;
49978;SDS011;35869;50.990;6.962;2023-02-01T16:32:01;11.30;;;3.25;;
49978;SDS011;35869;50.990;6.962;2023-02-01T16:37:02;20.30;;;3.63;;
49978;SDS011;35869;50.990;6.962;2023-02-01T16:42:08;8.75;;;3.72;;
49978;SDS011;35869;50.990;6.962;2023-02-01T16:47:11;9.85;;;3.00;;
49978;SDS011;35869;50.990;6.962;2023-02-01T16:52:17;10.80;;;3.53;;
49978;SDS011;35869;50.990;6.962;2023-02-01T16:57:19;5.88;;;2.90;;
49978;SDS011;35869;50.990;6.962;2023-02-01T17:02:20;15.73;;;3.87;;
49978;SDS011;35869;50.990;6.962;2023-02-01T17:07:20;9.43;;;3.28;;
49978;SDS011;35869;50.990;6.962;2023-02-01T17:17:27;11.10;;;3.13;;
49978;SDS011;35869;50.990;6.962;2023-02-01T17:22:35;6.93;;;3.25;;
49978;SDS011;35869;50.990;6.962;2023-02-01T17:27:36;10.85;;;3.60;;
49978;SDS011;35869;50.990;6.962;2023-02-01T17:32:36;14.02;;;3.20;;
49978;SDS011;35869;50.990;6.962;2023-02-01T17:37:37;10.73;;;3.58;;
49978;SDS011;35869;50.990;6.962;2023-02-01T17:42:37;10.77;;;3.80;;
49978;SDS011;35869;50.990;6.962;2023-02-01T17:47:37;10.10;;;4.43;;
49978;SDS011;35869;50.990;6.962;2023-02-01T17:52:38;12.10;;;3.88;;
49978;SDS011;35869;50.990;6.962;2023-02-01T17:57:38;8.13;;;3.22;;
49978;SDS011;35869;50.990;6.962;2023-02-01T18:02:38;9.13;;;3.13;;
49978;SDS011;35869;50.990;6.962;2023-02-01T18:07:38;8.60;;;3.40;;
49978;SDS011;35869;50.990;6.962;2023-02-01T18:12:39;7.05;;;3.13;;
49978;SDS011;35869;50.990;6.962;2023-02-01T18:17:39;12.23;;;3.28;;
49978;SDS011;35869;50.990;6.962;2023-02-01T18:22:40;17.48;;;3.08;;
49978;SDS011;35869;50.990;6.962;2023-02-01T18:27:41;10.95;;;3.33;;
49978;SDS011;35869;50.990;6.962;2023-02-01T18:32:42;15.07;;;3.87;;
49978;SDS011;35869;50.990;6.962;2023-02-01T18:37:42;11.65;;;3.33;;
49978;SDS011;35869;50.990;6.962;2023-02-01T18:42:43;15.27;;;4.13;;
49978;SDS011;35869;50.990;6.962;2023-02-01T18:47:44;8.97;;;3.50;;
49978;SDS011;35869;50.990;6.962;2023-02-01T18:52:44;10.75;;;3.40;;
49978;SDS011;35869;50.990;6.962;2023-02-01T18:57:45;6.57;;;3.65;;
49978;SDS011;35869;50.990;6.962;2023-02-01T19:02:45;8.98;;;3.53;;
49978;SDS011;35869;50.990;6.962;2023-02-01T19:07:46;8.00;;;3.13;;
49978;SDS011;35869;50.990;6.962;2023-02-01T19:12:46;8.00;;;3.03;;
49978;SDS011;35869;50.990;6.962;2023-02-01T19:17:48;5.90;;;2.60;;
49978;SDS011;35869;50.990;6.962;2023-02-01T19:22:49;17.13;;;3.55;;
49978;SDS011;35869;50.990;6.962;2023-02-01T19:27:51;13.32;;;3.35;;
49978;SDS011;35869;50.990;6.962;2023-02-01T19:37:52;11.32;;;3.60;;
49978;SDS011;35869;50.990;6.962;2023-02-01T19:42:52;12.38;;;4.13;;
49978;SDS011;35869;50.990;6.962;2023-02-01T19:47:52;9.95;;;3.95;;
49978;SDS011;35869;50.990;6.962;2023-02-01T19:52:53;10.77;;;2.67;;
49978;SDS011;35869;50.990;6.962;2023-02-01T19:57:53;9.68;;;3.63;;
49978;SDS011;35869;50.990;6.962;2023-02-01T20:02:53;6.80;;;3.15;;
49978;SDS011;35869;50.990;6.962;2023-02-01T20:07:53;11.43;;;3.78;;
49978;SDS011;35869;50.990;6.962;2023-02-01T20:12:53;7.28;;;3.20;;
49978;SDS011;35869;50.990;6.962;2023-02-01T20:17:54;10.40;;;3.00;;
49978;SDS011;35869;50.990;6.962;2023-02-01T20:22:54;8.07;;;3.67;;
49978;SDS011;35869;50.990;6.962;2023-02-01T20:27:55;11.10;;;4.05;;
49978;SDS011;35869;50.990;6.962;2023-02-01T20:32:55;16.45;;;3.63;;
49978;SDS011;35869;50.990;6.962;2023-02-01T20:37:55;12.88;;;2.90;;
49978;SDS011;35869;50.990;6.962;2023-02-01T20:42:55;14.70;;;4.18;;
49978;SDS011;35869;50.990;6.962;2023-02-01T20:47:55;12.38;;;3.53;;
49978;SDS011;35869;50.990;6.962;2023-02-01T20:52:56;7.90;;;3.30;;
49978;SDS011;35869;50.990;6.962;2023-02-01T20:57:56;15.43;;;4.57;;
49978;SDS011;35869;50.990;6.962;2023-02-01T21:02:57;13.83;;;4.03;;
49978;SDS011;35869;50.990;6.962;2023-02-01T21:07:57;14.10;;;3.67;;
49978;SDS011;35869;50.990;6.962;2023-02-01T21:12:57;10.18;;;3.53;;
49978;SDS011;35869;50.990;6.962;2023-02-01T21:17:57;14.80;;;4.90;;
49978;SDS011;35869;50.990;6.962;2023-02-01T21:22:57;7.03;;;3.47;;
49978;SDS011;35869;50.990;6.962;2023-02-01T21:27:58;9.25;;;4.07;;
49978;SDS011;35869;50.990;6.962;2023-02-01T21:32:58;9.63;;;4.40;;
49978;SDS011;35869;50.990;6.962;2023-02-01T21:37:58;14.88;;;4.82;;
49978;SDS011;35869;50.990;6.962;2023-02-01T21:42:59;18.33;;;4.43;;
49978;SDS011;35869;50.990;6.962;2023-02-01T21:47:59;12.93;;;4.30;;
49978;SDS011;35869;50.990;6.962;2023-02-01T21:52:59;12.83;;;5.37;;
49978;SDS011;35869;50.990;6.962;2023-02-01T21:57:59;17.83;;;4.68;;
49978;SDS011;35869;50.990;6.962;2023-02-01T22:02:59;10.50;;;4.00;;
49978;SDS011;35869;50.990;6.962;2023-02-01T22:08:00;12.20;;;3.97;;
49978;SDS011;35869;50.990;6.962;2023-02-01T22:13:00;12.45;;;4.38;;
49978;SDS011;35869;50.990;6.962;2023-02-01T22:18:00;16.98;;;4.70;;
49978;SDS011;35869;50.990;6.962;2023-02-01T22:23:01;12.70;;;4.35;;
49978;SDS011;35869;50.990;6.962;2023-02-01T22:28:01;17.38;;;5.13;;
49978;SDS011;35869;50.990;6.962;2023-02-01T22:33:01;9.23;;;4.82;;
49978;SDS011;35869;50.990;6.962;2023-02-01T22:38:01;12.32;;;4.63;;
49978;SDS011;35869;50.990;6.962;2023-02-01T22:43:02;10.02;;;3.88;;
49978;SDS011;35869;50.990;6.962;2023-02-01T22:48:02;13.75;;;5.05;;
49978;SDS011;35869;50.990;6.962;2023-02-01T22:53:04;10.38;;;4.53;;
49978;SDS011;35869;50.990;6.962;2023-02-01T22:58:04;13.63;;;4.22;;
49978;SDS011;35869;50.990;6.962;2023-02-01T23:03:05;21.38;;;4.85;;
49978;SDS011;35869;50.990;6.962;2023-02-01T23:13:05;17.23;;;5.18;;
49978;SDS011;35869;50.990;6.962;2023-02-01T23:18:06;13.27;;;4.20;;
49978;SDS011;35869;50.990;6.962;2023-02-01T23:23:06;9.38;;;4.05;;
49978;SDS011;35869;50.990;6.962;2023-02-01T23:28:06;10.43;;;4.53;;
49978;SDS011;35869;50.990;6.962;2023-02-01T23:33:06;17.38;;;5.65;;
49978;SDS011;35869;50.990;6.962;2023-02-01T23:38:06;16.48;;;5.47;;
49978;SDS011;35869;50.990;6.962;2023-02-01T23:43:07;18.63;;;5.60;;
49978;SDS011;35869;50.990;6.962;2023-02-01T23:48:07;12.65;;;4.70;;
49978;SDS011;35869;50.990;6.962;2023-02-01T23:53:07;10.77;;;4.47;;
49978;SDS011;35869;50.990;6.962;2023-02-01T23:58:07;9.93;;;4.72;;
